Time;durP1;ratioP1;P1;durP2;ratioP2;P2;SDS_P1;SDS_P2;PMS_P1;PMS_P2;Temp;Humidity;BMP_temperature;BMP_pressure;BME280_temperature;BME280_humidity;BME280_pressure;Samples;Min_cycle;Max_cycle;Signal;HPM_P1;HPM_P2
2022/04/08 19:57:54;;;;;;;10.35;4.47;;;;;;;;;;7331880;19;20034;-80
2022/04/08 22:02:38;;;;;;;27.58;14.48;;;;;;;;;;7329671;19;20026;-78
2022/04/08 22:05:04;;;;;;;35.22;15.93;;;;;;;;;;7363252;19;20355;-78
2022/04/08 22:07:29;;;;;;;31.30;15.93;;;;;;;;;;7371519;19;20022;-77
2022/04/08 22:09:54;;;;;;;29.08;16.40;;;;;;;;;;7345530;19;20015;-88
2022/04/08 22:12:20;;;;;;;34.67;18.27;;;;;;;;;;7344171;19;20010;-83
2022/04/08 22:14:45;;;;;;;30.60;17.27;;;;;;;;;;7368265;19;20501;-83
2022/04/08 22:17:10;;;;;;;35.78;17.23;;;;;;;;;;7373979;19;20010;-88
2022/04/08 22:19:35;;;;;;;34.97;18.73;;;;;;;;;;7365577;19;20022;-82
2022/04/08 22:22:00;;;;;;;33.15;18.20;;;;;;;;;;7376464;19;20003;-83
2022/04/08 22:24:26;;;;;;;26.67;15.75;;;;;;;;;;7355347;19;20018;-85
2022/04/08 22:26:51;;;;;;;29.52;16.67;;;;;;;;;;7370350;19;20574;-83
2022/04/08 22:29:16;;;;;;;31.30;16.85;;;;;;;;;;7380253;19;20001;-84
2022/04/08 22:31:42;;;;;;;30.00;17.27;;;;;;;;;;7379012;19;20010;-84
2022/04/08 22:34:07;;;;;;;29.83;15.95;;;;;;;;;;7379391;19;20546;-86
2022/04/08 22:36:34;;;;;;;28.27;16.85;;;;;;;;;;7373098;19;20014;-84
2022/04/08 22:39:00;;;;;;;26.27;16.20;;;;;;;;;;7367882;19;20026;-85
2022/04/08 22:41:25;;;;;;;33.38;16.58;;;;;;;;;;7366773;19;20011;-84
2022/04/08 22:43:50;;;;;;;28.13;16.80;;;;;;;;;;7363143;19;20010;-86
2022/04/08 22:46:16;;;;;;;28.83;15.48;;;;;;;;;;7373049;19;20532;-85
2022/04/08 22:48:41;;;;;;;28.52;16.58;;;;;;;;;;7374683;19;20007;-86
2022/04/08 22:51:06;;;;;;;28.35;16.55;;;;;;;;;;7370651;19;20312;-86
2022/04/08 22:53:31;;;;;;;30.58;16.70;;;;;;;;;;7364184;19;20044;-88
2022/04/08 22:55:56;;;;;;;30.35;16.38;;;;;;;;;;7375574;19;20034;-86
2022/04/08 23:01:06;;;;;;;29.88;14.70;;;;;;;;;;7374180;19;20032;-86
2022/04/08 23:03:32;;;;;;;35.78;15.57;;;;;;;;;;7371293;19;20015;-87
2022/04/08 23:05:57;;;;;;;29.75;15.70;;;;;;;;;;7376891;19;20042;-84
2022/04/08 23:08:22;;;;;;;30.52;15.32;;;;;;;;;;7370589;19;20005;-85
2022/04/08 23:10:47;;;;;;;22.00;13.93;;;;;;;;;;7369099;19;20011;-84
2022/04/08 23:13:12;;;;;;;26.80;13.70;;;;;;;;;;7374791;19;20395;-86
2022/04/08 23:15:38;;;;;;;27.83;14.60;;;;;;;;;;7372005;19;20002;-88
2022/04/08 23:18:03;;;;;;;23.65;14.60;;;;;;;;;;7371464;19;20014;-84
2022/04/08 23:20:28;;;;;;;25.50;12.65;;;;;;;;;;7381226;19;20015;-83
2022/04/08 23:22:53;;;;;;;31.80;13.20;;;;;;;;;;7379359;19;20339;-84
2022/04/08 23:25:18;;;;;;;26.30;12.55;;;;;;;;;;7381779;19;20032;-86
2022/04/08 23:27:44;;;;;;;27.33;12.90;;;;;;;;;;7377762;19;20048;-84
2022/04/08 23:30:09;;;;;;;25.63;12.70;;;;;;;;;;7379413;19;20482;-86
2022/04/08 23:32:34;;;;;;;22.25;13.07;;;;;;;;;;7378492;19;20005;-86
2022/04/08 23:34:59;;;;;;;24.60;11.27;;;;;;;;;;7383393;19;20021;-83
2022/04/08 23:37:25;;;;;;;25.10;11.75;;;;;;;;;;7378514;19;20014;-84
2022/04/08 23:39:50;;;;;;;26.67;12.13;;;;;;;;;;7370960;19;20015;-83
2022/04/08 23:42:15;;;;;;;29.48;12.95;;;;;;;;;;7379387;19;20476;-87
2022/04/08 23:44:41;;;;;;;28.60;12.88;;;;;;;;;;7380310;19;20062;-85
2022/04/08 23:47:06;;;;;;;27.98;12.70;;;;;;;;;;7373572;19;20912;-85
2022/04/08 23:49:31;;;;;;;32.25;14.95;;;;;;;;;;7375577;19;20002;-88
2022/04/08 23:51:56;;;;;;;27.95;12.30;;;;;;;;;;7377622;19;20466;-84
2022/04/08 23:54:21;;;;;;;22.65;11.00;;;;;;;;;;7378633;19;19998;-85
2022/04/08 23:56:46;;;;;;;24.05;12.00;;;;;;;;;;7380193;19;20011;-85
2022/04/08 23:59:12;;;;;;;25.15;11.73;;;;;;;;;;7377033;19;20459;-85
